Главная страница
METAR-TAF:

METAR-TAF

Аэропорты :

Диярбакыр, Турция

широта: 37-53N, долгота: 040-11E, высота над уровнем моря: 686 м

Текущие метеонаблюдения

Эта сводка был подготовлена 47 минут назад, в 18:20 UTC
Ветер 10 Узел от северно-северо-западный
Температура 21°C
Влажность 40%
Давление 1015 hPa
Видимость 10 км и более
небольшая облачность на высоте 4000 фута
Отдельные облака на высоте 10000 фута

METAR: LTCC 241820Z 34010KT 9999 FEW040 SCT100 21/07 Q1015 NOSIG RMK RWY16 34008KT 1CU040 3AC100

Время: 22:07 (19:07 UTC)

Прогноз

Эта сводка был подготовлена 2 часа и 27 минут назад, в 16:40 UTC
Прогноз действительный с 24-го 18 UTC до 25-го 18 UTC
Ветер 8 Узел от северо-западный
Видимость 10 км и более
небольшая облачность на высоте 4000 фута
Отдельные облака на высоте 10000 фута
изменения
С 24-го 21 UTC до 24-го 24 UTC
Видимость 10 км и более
Нет облачности ниже 1500 м, и нет кучево-дождевой облачности

TAF: LTCC 241640Z 2418/2518 31008KT 9999 FEW040 SCT100 BECMG 2421/2424 CAVOK

Метеонаблюдения и прогнозы для более 4000 аэропортов (сводки METAR и TAF).

Имеющиеся станции представлены на карте желтыми и красными точками.

Чтобы увидеть название станции, наведите на нее мышь.

Затем щелкните, чтобы увидеть метеонаблюдения и метеопрогнозы.

Управление картой: чтобы увеличить масштаб, щелкните зеленые кнопки с черным крестиком; чтобы уменьшить масштаб, щелкните зеленую кнопку с тире; для просмотра соседних карт щелкайте зеленые стрелки.


METAR-TAF: